Time;durP1;ratioP1;P1;durP2;ratioP2;P2;SDS_P1;SDS_P2;PMS_P1;PMS_P2;Temp;Humidity;BMP_temperature;BMP_pressure;BME280_temperature;BME280_humidity;BME280_pressure;Samples;Min_cycle;Max_cycle;Signal;HPM_P1;HPM_P2
2021/11/27 00:00:40;;;;;;;12.70;11.40;;;1.60;99.90;;;2.21;88.55;95394.66;5272198;28;20517;-59
2021/11/27 00:03:17;;;;;;;12.90;11.43;;;1.60;99.90;;;2.22;88.38;95396.38;5257935;22;20616;-60
2021/11/27 00:05:51;;;;;;;19.10;15.17;;;1.60;99.90;;;2.28;88.25;95390.75;5228835;28;20223;-60
2021/11/27 00:08:25;;;;;;;19.73;16.80;;;1.50;99.90;;;2.23;89.46;95387.16;5244803;28;20200;-61
2021/11/27 00:11:00;;;;;;;18.77;15.30;;;1.50;99.90;;;2.08;89.87;95379.72;5245126;28;20191;-61
2021/11/27 00:13:34;;;;;;;14.97;13.43;;;1.40;99.90;;;2.11;89.81;95379.84;5253023;28;20217;-60
2021/11/27 00:16:07;;;;;;;16.20;13.80;;;1.50;99.90;;;2.15;89.70;95386.78;5253710;28;20220;-60
2021/11/27 00:18:42;;;;;;;17.77;15.10;;;1.50;99.90;;;2.17;90.50;95386.84;5254130;28;20291;-60
2021/11/27 00:21:19;;;;;;;20.23;17.30;;;1.50;99.90;;;2.16;89.91;95378.44;5245029;28;20202;-61
2021/11/27 00:23:54;;;;;;;18.47;15.23;;;1.40;99.90;;;2.07;90.69;95370.44;5252512;28;20240;-60
2021/11/27 00:26:27;;;;;;;17.13;14.63;;;1.40;99.90;;;2.10;90.70;95370.59;5261337;28;20204;-61
2021/11/27 00:29:01;;;;;;;16.67;13.73;;;1.40;99.90;;;2.12;90.57;95358.94;5264447;28;20192;-61
2021/11/27 00:31:36;;;;;;;17.87;14.90;;;1.40;99.90;;;2.10;91.29;95362.16;5257964;28;20822;-61
2021/11/27 00:34:13;;;;;;;15.90;14.13;;;1.40;99.90;;;2.15;91.81;95356.56;5260106;28;20201;-59
2021/11/27 00:36:47;;;;;;;16.13;13.80;;;1.40;99.90;;;2.13;91.15;95350.56;5256180;28;20201;-59
2021/11/27 00:39:21;;;;;;;17.50;13.87;;;1.40;99.90;;;2.15;91.35;95343.09;5260709;28;20231;-58
2021/11/27 00:41:55;;;;;;;13.17;11.77;;;1.50;99.90;;;2.18;91.46;95339.06;5261416;28;20654;-60
2021/11/27 00:44:28;;;;;;;12.93;11.60;;;1.50;99.90;;;2.25;90.62;95331.00;5257304;28;20323;-60
2021/11/27 00:47:01;;;;;;;12.97;11.67;;;1.50;99.90;;;2.25;88.72;95338.56;5256738;28;20212;-60
2021/11/27 00:49:36;;;;;;;12.53;11.13;;;1.60;99.90;;;2.23;89.30;95330.09;5249008;28;20363;-57
2021/11/27 00:52:09;;;;;;;12.03;10.83;;;1.50;99.90;;;2.12;90.40;95330.34;5252710;28;20223;-60
2021/11/27 00:54:42;;;;;;;12.57;11.27;;;1.40;99.90;;;2.10;90.96;95326.91;5263418;28;20298;-58
2021/11/27 00:57:15;;;;;;;12.07;10.70;;;1.40;99.90;;;2.07;90.51;95322.56;5254633;28;20193;-59
2021/11/27 00:59:49;;;;;;;10.87;9.83;;;1.40;99.90;;;2.08;90.46;95316.72;5251192;28;20200;-61
2021/11/27 01:02:22;;;;;;;10.57;9.53;;;1.40;99.90;;;2.10;90.56;95317.69;5252497;28;20246;-61
2021/11/27 01:04:57;;;;;;;11.93;10.80;;;1.40;99.90;;;2.12;90.51;95311.06;5264400;28;20254;-60
2021/11/27 01:07:30;;;;;;;11.83;10.73;;;1.40;99.90;;;2.08;90.31;95310.84;5252028;28;20229;-61
2021/11/27 01:10:06;;;;;;;11.23;10.00;;;1.30;99.90;;;1.97;90.81;95312.84;5247783;28;20196;-61
2021/11/27 01:12:39;;;;;;;11.27;10.20;;;1.20;99.90;;;1.94;90.39;95312.69;5248746;28;20651;-61
2021/11/27 01:15:17;;;;;;;11.50;10.47;;;1.20;99.90;;;1.93;90.47;95306.78;5255313;28;20462;-61
2021/11/27 01:17:50;;;;;;;11.17;10.07;;;1.20;99.90;;;1.98;90.56;95309.53;5258776;28;20246;-61
2021/11/27 01:20:29;;;;;;;12.53;11.33;;;1.30;99.90;;;2.19;89.53;95314.72;5255502;28;20232;-61
2021/11/27 01:23:03;;;;;;;12.07;10.87;;;1.40;99.90;;;2.15;89.36;95303.66;5229012;28;20233;-61
2021/11/27 01:25:36;;;;;;;12.23;10.93;;;1.40;99.90;;;2.12;89.27;95295.94;5250709;28;20227;-61
2021/11/27 01:28:09;;;;;;;12.87;11.50;;;1.30;99.90;;;2.05;89.67;95298.09;5252662;28;20200;-61
2021/11/27 01:30:43;;;;;;;15.33;13.53;;;1.20;99.90;;;2.01;90.48;95295.44;5249918;28;20212;-60
2021/11/27 01:33:16;;;;;;;13.47;11.27;;;1.20;99.90;;;1.97;90.62;95302.75;5259657;28;20219;-61
2021/11/27 01:35:54;;;;;;;12.57;11.27;;;1.20;99.90;;;1.95;91.09;95291.78;5249552;28;20668;-59
2021/11/27 01:38:28;;;;;;;14.10;12.60;;;1.20;99.90;;;1.95;90.91;95289.25;5252045;28;20218;-61
2021/11/27 01:41:02;;;;;;;14.17;12.67;;;1.20;99.90;;;1.91;91.55;95288.22;5247403;28;20193;-60
2021/11/27 01:43:37;;;;;;;15.20;12.57;;;1.20;99.90;;;1.87;91.42;95293.06;5252895;28;20216;-61
2021/11/27 01:46:10;;;;;;;13.00;11.70;;;1.20;99.90;;;1.90;91.75;95291.53;5254399;28;20315;-61
2021/11/27 01:48:43;;;;;;;13.97;12.37;;;1.20;99.90;;;1.91;92.17;95284.84;5255649;28;20660;-61
2021/11/27 01:51:22;;;;;;;13.77;12.30;;;1.20;99.90;;;1.91;91.20;95283.19;5247013;28;20232;-60
2021/11/27 01:54:02;;;;;;;12.43;11.13;;;1.20;99.90;;;1.94;91.55;95283.31;5256204;28;20212;-61
2021/11/27 01:56:39;;;;;;;12.07;10.87;;;1.30;99.90;;;1.99;92.04;95276.00;5255334;28;20288;-61
2021/11/27 01:59:13;;;;;;;12.40;11.10;;;1.30;99.90;;;2.03;91.68;95273.72;5255387;28;20234;-61
2021/11/27 02:01:47;;;;;;;12.67;11.40;;;1.30;99.90;;;2.10;91.24;95276.50;5253240;28;20255;-61
2021/11/27 02:04:21;;;;;;;13.37;11.33;;;1.20;99.90;;;2.12;90.67;95278.31;5259579;28;20198;-61
2021/11/27 02:06:56;;;;;;;12.77;10.90;;;1.20;99.90;;;2.07;90.59;95273.84;5258609;28;20246;-61
2021/11/27 02:09:34;;;;;;;12.27;11.07;;;1.20;99.90;;;1.94;91.06;95267.34;5255914;28;20631;-62
2021/11/27 02:12:12;;;;;;;11.63;10.53;;;1.20;99.90;;;1.89;92.23;95266.25;5257049;28;20305;-61
2021/11/27 02:14:45;;;;;;;12.40;11.10;;;1.20;99.90;;;1.79;92.51;95268.34;5254396;28;20561;-61
2021/11/27 02:17:24;;;;;;;11.80;10.60;;;1.10;99.90;;;1.78;92.08;95260.75;5261184;28;20229;-60
2021/11/27 02:19:57;;;;;;;11.47;10.27;;;1.10;99.90;;;1.79;91.58;95263.31;5255520;28;20200;-60
2021/11/27 02:22:34;;;;;;;11.70;10.50;;;1.10;99.90;;;1.75;92.66;95258.09;5258353;28;20230;-61
2021/11/27 02:25:11;;;;;;;12.57;11.27;;;1.10;99.90;;;1.73;92.92;95247.06;5254564;28;20292;-61
2021/11/27 02:27:46;;;;;;;11.70;10.53;;;1.10;99.90;;;1.76;92.78;95248.06;5253086;28;20315;-61
2021/11/27 02:30:23;;;;;;;12.27;10.57;;;1.20;99.90;;;1.79;92.43;95248.22;5259623;28;20500;-61
2021/11/27 02:32:56;;;;;;;11.00;9.90;;;1.20;99.90;;;1.89;93.58;95239.47;5257079;28;20226;-61
2021/11/27 02:35:29;;;;;;;12.43;11.23;;;1.30;99.90;;;1.99;93.21;95245.78;5249203;28;20203;-61
2021/11/27 02:38:04;;;;;;;11.77;10.57;;;1.40;99.90;;;2.10;92.17;95239.59;5257243;28;20284;-61
2021/11/27 02:40:38;;;;;;;12.40;11.10;;;1.30;99.90;;;2.06;92.65;95241.88;5246434;28;20241;-61
2021/11/27 02:43:11;;;;;;;12.97;11.67;;;1.30;99.90;;;2.03;91.71;95235.03;5259368;28;20617;-59
2021/11/27 02:45:45;;;;;;;12.40;11.20;;;1.30;99.90;;;1.98;91.90;95224.78;5248917;28;20191;-61
2021/11/27 02:48:18;;;;;;;13.40;11.33;;;1.20;99.90;;;1.99;92.65;95228.16;5256480;28;20245;-61
2021/11/27 02:50:51;;;;;;;12.03;10.80;;;1.30;99.90;;;1.96;92.83;95226.34;5266123;28;20695;-61
2021/11/27 02:53:26;;;;;;;12.23;11.03;;;1.30;99.90;;;2.01;93.12;95221.53;5264689;28;20319;-61
2021/11/27 02:55:59;;;;;;;11.70;10.50;;;1.40;99.90;;;2.05;92.84;95223.38;5250624;28;20783;-61
2021/11/27 02:58:33;;;;;;;12.03;10.83;;;1.40;99.90;;;2.11;92.48;95227.84;5249898;28;20220;-60
2021/11/27 03:01:09;;;;;;;11.93;10.73;;;1.40;99.90;;;2.12;92.43;95216.97;5250605;28;20196;-60
2021/11/27 03:03:44;;;;;;;12.77;11.57;;;1.40;99.90;;;2.17;92.36;95225.59;5258360;28;20595;-61
2021/11/27 03:06:17;;;;;;;13.10;11.47;;;1.40;99.90;;;2.15;92.26;95218.00;5262548;28;20196;-61
2021/11/27 03:08:52;;;;;;;12.63;11.43;;;1.40;99.90;;;2.18;92.99;95220.66;5258350;28;20654;-61
2021/11/27 03:11:25;;;;;;;12.27;11.17;;;1.40;99.90;;;2.15;93.46;95220.50;5242202;28;20253;-61
2021/11/27 03:13:59;;;;;;;11.87;10.77;;;1.50;99.90;;;2.08;92.38;95223.53;5253992;28;20681;-61
2021/11/27 03:16:35;;;;;;;11.77;10.67;;;1.40;99.90;;;2.16;92.86;95233.97;5253918;28;20285;-60
2021/11/27 03:19:30;;;;;;;10.70;9.70;;;1.50;99.90;;;2.20;93.07;95219.06;5257695;28;20198;-62
2021/11/27 03:22:04;;;;;;;11.80;10.70;;;1.50;99.90;;;2.22;92.93;95225.03;5238781;28;20789;-61
2021/11/27 03:24:39;;;;;;;10.67;9.67;;;1.50;99.90;;;2.24;93.11;95210.84;5245619;28;20652;-61
2021/11/27 03:27:15;;;;;;;19.37;17.13;;;1.60;99.90;;;2.27;92.71;95214.31;5253048;28;20288;-61
2021/11/27 03:29:48;;;;;;;16.20;14.50;;;1.60;99.90;;;2.23;92.83;95216.69;5245866;28;20566;-59
2021/11/27 03:32:21;;;;;;;10.73;9.63;;;1.60;99.90;;;2.30;91.41;95205.22;5253643;28;20239;-61
2021/11/27 03:34:55;;;;;;;12.03;10.83;;;1.60;99.90;;;2.30;91.35;95202.69;5246540;28;20192;-59
2021/11/27 03:37:28;;;;;;;11.13;10.07;;;1.60;99.90;;;2.29;91.80;95207.66;5256034;28;20206;-61
2021/11/27 03:40:04;;;;;;;11.07;9.97;;;1.60;99.90;;;2.32;92.12;95205.28;5225093;28;20838;-61
2021/11/27 03:42:38;;;;;;;12.60;10.87;;;1.60;99.90;;;2.38;91.56;95208.09;5238409;28;20303;-61
2021/11/27 03:45:16;;;;;;;11.67;10.47;;;1.70;99.90;;;2.34;92.52;95207.06;5235185;28;20738;-61
2021/11/27 03:48:07;;;;;;;11.23;10.13;;;1.60;99.90;;;2.26;92.70;95210.91;5251493;28;20754;-60
2021/11/27 03:50:46;;;;;;;11.03;9.93;;;1.60;99.90;;;2.27;93.23;95209.28;5253894;28;20552;-61
2021/11/27 03:53:23;;;;;;;10.97;9.73;;;1.50;99.90;;;2.31;92.71;95209.47;5256352;28;20215;-61
2021/11/27 03:55:58;;;;;;;10.30;9.30;;;1.60;99.90;;;2.24;93.01;95210.84;5247891;28;20200;-61
2021/11/27 03:58:32;;;;;;;11.63;10.53;;;1.50;99.90;;;2.23;92.76;95213.28;5257874;28;20193;-61
2021/11/27 04:01:07;;;;;;;9.90;8.90;;;1.50;99.90;;;2.23;92.39;95218.31;5250943;28;20199;-61
2021/11/27 04:03:46;;;;;;;9.87;8.87;;;1.50;99.90;;;2.16;91.38;95219.72;5257479;28;20234;-61
2021/11/27 04:06:20;;;;;;;9.07;8.17;;;1.50;99.90;;;2.25;92.37;95212.56;5242145;28;20209;-61
2021/11/27 04:08:54;;;;;;;10.97;9.87;;;1.60;99.90;;;2.29;91.84;95216.09;5256970;28;20379;-60
2021/11/27 04:11:29;;;;;;;9.33;8.53;;;1.60;99.90;;;2.34;91.96;95213.78;5266302;28;20203;-61
2021/11/27 04:14:03;;;;;;;9.97;8.93;;;1.60;99.90;;;2.32;92.26;95215.34;5252597;28;20579;-61
2021/11/27 04:16:36;;;;;;;8.53;7.73;;;1.70;99.90;;;2.38;91.86;95220.69;5246969;28;20257;-61
2021/11/27 04:19:09;;;;;;;9.40;8.50;;;1.70;99.90;;;2.40;91.70;95216.56;5251595;28;20267;-58
2021/11/27 04:21:42;;;;;;;9.00;8.10;;;1.70;99.90;;;2.41;91.91;95224.22;5244707;28;20203;-61
2021/11/27 04:24:15;;;;;;;8.30;7.47;;;1.70;99.90;;;2.44;92.45;95226.88;5244516;28;20727;-61
2021/11/27 04:26:50;;;;;;;9.37;8.40;;;1.80;99.90;;;2.49;92.12;95217.00;5246613;28;20655;-59
2021/11/27 04:29:23;;;;;;;9.60;8.70;;;1.80;99.90;;;2.58;90.95;95219.94;5248963;28;20227;-61
2021/11/27 04:31:56;;;;;;;8.90;8.07;;;1.80;99.90;;;2.61;90.14;95220.06;5253475;28;20197;-61
2021/11/27 04:34:29;;;;;;;9.43;8.53;;;1.70;99.90;;;2.55;90.95;95219.78;5254227;28;20200;-61
2021/11/27 04:37:03;;;;;;;9.33;8.60;;;1.70;99.90;;;2.44;91.60;95226.00;5251940;28;20215;-59
2021/11/27 04:39:36;;;;;;;9.37;8.57;;;1.70;99.90;;;2.39;91.53;95223.28;5261917;28;20241;-60
2021/11/27 04:42:10;;;;;;;10.20;9.20;;;1.60;99.90;;;2.37;92.25;95213.91;5252623;28;20679;-60
2021/11/27 04:44:44;;;;;;;9.90;8.80;;;1.60;99.90;;;2.36;91.67;95212.19;5248712;28;20203;-60
2021/11/27 04:47:17;;;;;;;8.10;7.30;;;1.60;99.90;;;2.36;91.80;95208.00;5248668;28;20644;-60
2021/11/27 04:49:50;;;;;;;8.50;7.80;;;1.70;99.90;;;2.39;92.09;95215.72;5246362;28;20196;-61
2021/11/27 04:52:24;;;;;;;10.00;9.00;;;1.70;99.90;;;2.41;91.68;95218.31;5253057;28;20233;-60
2021/11/27 04:54:57;;;;;;;9.20;8.50;;;1.70;99.90;;;2.38;92.19;95224.06;5252627;28;20204;-60
2021/11/27 04:57:32;;;;;;;8.67;7.93;;;1.70;99.90;;;2.43;92.30;95224.25;5257640;28;20246;-61
2021/11/27 05:00:09;;;;;;;8.77;7.97;;;1.70;99.90;;;2.46;92.72;95221.88;5248411;28;20633;-59
2021/11/27 05:02:42;;;;;;;8.20;7.47;;;1.80;99.90;;;2.51;92.98;95225.47;5252165;28;20317;-60
2021/11/27 05:05:17;;;;;;;9.27;8.53;;;1.80;99.90;;;2.55;92.85;95223.94;5258465;28;20222;-61
2021/11/27 05:07:51;;;;;;;8.27;7.57;;;1.90;99.90;;;2.61;92.33;95224.25;5260681;28;20724;-58
2021/11/27 05:10:25;;;;;;;8.87;7.97;;;1.80;99.90;;;2.60;92.31;95225.03;5267949;28;20192;-60
2021/11/27 05:12:59;;;;;;;9.03;8.23;;;1.80;99.90;;;2.57;92.14;95223.22;5260048;28;20230;-61
2021/11/27 05:15:32;;;;;;;9.20;8.33;;;1.90;99.90;;;2.58;92.89;95224.09;5253263;28;20670;-60
2021/11/27 05:18:06;;;;;;;9.63;8.63;;;1.90;99.90;;;2.57;92.17;95227.41;5257694;28;20196;-61
2021/11/27 05:20:39;;;;;;;9.57;8.67;;;1.90;99.90;;;2.56;92.47;95226.56;5264209;28;20252;-60
2021/11/27 05:23:12;;;;;;;10.90;9.80;;;1.90;99.90;;;2.58;92.77;95224.09;5256004;28;20220;-59
2021/11/27 05:25:45;;;;;;;14.37;10.27;;;2.00;99.90;;;2.64;93.36;95224.38;5257901;28;20237;-59
2021/11/27 05:28:20;;;;;;;10.73;9.63;;;2.00;99.90;;;2.64;93.11;95222.72;5267774;28;20215;-59
2021/11/27 05:30:53;;;;;;;9.67;8.63;;;2.10;99.90;;;2.63;93.36;95223.53;5256118;28;20197;-61
2021/11/27 05:33:46;;;;;;;9.00;8.10;;;2.00;99.90;;;2.66;91.97;95227.81;5255103;28;20233;-60
2021/11/27 05:36:20;;;;;;;8.60;7.90;;;2.00;99.90;;;2.62;92.25;95226.81;5247847;28;20181;-60
2021/11/27 05:38:53;;;;;;;9.40;7.30;;;2.00;99.90;;;2.61;92.64;95221.72;5258311;28;20196;-59
2021/11/27 05:41:26;;;;;;;7.23;6.63;;;2.00;99.90;;;2.69;93.00;95216.22;5248849;28;20567;-60
2021/11/27 05:44:01;;;;;;;7.97;7.17;;;2.10;99.90;;;2.71;93.24;95224.69;5251012;28;20215;-60
2021/11/27 05:46:35;;;;;;;8.87;7.97;;;2.10;99.90;;;2.71;94.11;95222.16;5250325;28;20618;-60
2021/11/27 05:49:08;;;;;;;7.90;7.17;;;2.20;99.90;;;2.70;94.53;95222.97;5256817;28;20220;-60
2021/11/27 05:51:41;;;;;;;7.53;6.83;;;2.20;99.90;;;2.71;94.51;95232.25;5254149;28;20684;-59
2021/11/27 05:54:14;;;;;;;7.73;7.03;;;2.20;99.90;;;2.70;93.31;95233.06;5258476;28;20195;-59
2021/11/27 05:56:47;;;;;;;6.20;5.67;;;2.20;99.90;;;2.78;94.18;95227.50;5248668;28;20201;-60
2021/11/27 05:59:22;;;;;;;6.40;5.90;;;2.30;99.90;;;2.85;94.30;95239.56;5252950;28;20206;-58
2021/11/27 06:01:55;;;;;;;6.23;5.70;;;2.30;99.90;;;2.90;93.98;95233.06;5251325;28;20583;-60
2021/11/27 06:04:28;;;;;;;7.17;6.53;;;2.40;99.90;;;2.97;93.62;95245.16;5263367;28;20497;-60
2021/11/27 06:07:01;;;;;;;5.90;5.40;;;2.50;99.90;;;2.99;92.91;95252.78;5260749;28;20213;-60
2021/11/27 06:09:39;;;;;;;7.20;6.60;;;2.50;99.90;;;3.03;92.95;95260.53;5253754;28;20224;-60
2021/11/27 06:12:12;;;;;;;8.90;7.70;;;2.50;99.90;;;3.00;92.84;95260.41;5253799;28;20224;-58
2021/11/27 06:14:47;;;;;;;7.33;6.67;;;2.50;99.90;;;3.02;93.59;95258.81;5252907;28;20201;-59
2021/11/27 06:17:20;;;;;;;7.70;6.90;;;2.50;99.90;;;3.01;93.66;95266.34;5253589;28;20373;-57
2021/11/27 06:19:53;;;;;;;6.73;6.13;;;2.40;99.90;;;2.99;93.49;95260.38;5252241;28;20198;-58
2021/11/27 06:22:26;;;;;;;6.53;5.93;;;2.50;99.90;;;3.00;93.12;95257.03;5263406;28;20713;-59
2021/11/27 06:25:02;;;;;;;6.37;5.77;;;2.50;99.90;;;3.02;92.34;95256.31;5252308;28;20204;-59
2021/11/27 06:27:36;;;;;;;6.07;5.47;;;2.50;99.90;;;3.08;92.26;95260.75;5250104;28;20289;-59
2021/11/27 06:30:11;;;;;;;6.10;5.60;;;2.60;99.90;;;3.08;92.91;95261.59;5248626;28;20216;-59
2021/11/27 06:32:44;;;;;;;6.13;5.63;;;2.60;99.90;;;3.07;93.12;95259.03;5258198;28;20258;-58
2021/11/27 06:35:18;;;;;;;6.20;5.70;;;2.60;99.90;;;3.17;93.39;95264.53;5248613;28;20676;-59
2021/11/27 06:37:51;;;;;;;5.80;5.30;;;2.60;99.90;;;3.13;92.50;95262.69;5255033;28;20291;-60
2021/11/27 06:40:24;;;;;;;6.00;5.40;;;2.60;99.90;;;3.04;93.09;95262.28;5260472;28;20435;-60
2021/11/27 06:43:00;;;;;;;5.77;5.37;;;2.60;99.90;;;2.99;93.68;95268.78;5245798;28;20704;-60
2021/11/27 06:45:34;;;;;;;6.10;5.60;;;2.50;99.90;;;3.02;93.91;95280.69;5246020;28;20195;-60
2021/11/27 06:48:08;;;;;;;6.90;6.30;;;2.50;99.90;;;3.05;94.09;95280.81;5250771;28;20207;-60
2021/11/27 06:50:41;;;;;;;6.27;5.83;;;2.50;99.90;;;3.05;94.34;95279.16;5246048;28;20196;-60
2021/11/27 06:53:14;;;;;;;6.47;5.87;;;2.50;99.90;;;3.05;94.71;95289.22;5258612;28;20221;-60
2021/11/27 06:55:47;;;;;;;7.60;6.93;;;2.50;99.90;;;3.07;94.44;95296.88;5253588;28;20227;-60
2021/11/27 06:58:20;;;;;;;7.67;7.00;;;2.50;99.90;;;3.09;94.76;95301.22;5249792;28;20205;-59
2021/11/27 07:00:55;;;;;;;9.00;8.20;;;2.50;99.90;;;3.04;94.75;95297.63;5261899;28;20214;-60
2021/11/27 07:03:29;;;;;;;8.87;8.07;;;2.40;99.90;;;3.01;95.18;95296.63;5253355;28;20245;-60
2021/11/27 07:06:04;;;;;;;8.33;7.63;;;2.40;99.90;;;2.98;95.54;95302.41;5249091;28;20204;-60
2021/11/27 07:08:37;;;;;;;10.57;9.57;;;2.40;99.90;;;3.01;95.71;95309.25;5255298;28;20233;-60
2021/11/27 07:11:10;;;;;;;9.37;8.57;;;2.40;99.90;;;2.97;96.10;95310.75;5253440;28;20203;-60
2021/11/27 07:13:43;;;;;;;9.60;8.70;;;2.40;99.90;;;3.00;96.43;95310.88;5252153;28;20731;-60
2021/11/27 07:16:17;;;;;;;10.37;9.27;;;2.40;99.90;;;3.05;96.35;95317.00;5245376;28;20283;-60
2021/11/27 07:18:50;;;;;;;11.00;9.90;;;2.40;99.90;;;3.06;97.14;95311.16;5257352;28;20282;-60
2021/11/27 07:21:24;;;;;;;10.23;9.33;;;2.50;99.90;;;3.08;97.18;95319.66;5241828;28;20204;-60
2021/11/27 07:23:57;;;;;;;20.43;17.00;;;2.50;99.90;;;3.12;97.31;95321.53;5253129;28;20289;-59
2021/11/27 07:26:31;;;;;;;17.60;15.33;;;2.60;99.90;;;3.21;97.52;95327.78;5250931;28;20199;-60
2021/11/27 07:29:05;;;;;;;12.50;11.20;;;2.60;99.90;;;3.26;96.85;95326.28;5254716;28;20481;-60
2021/11/27 07:31:39;;;;;;;11.43;10.33;;;2.70;99.90;;;3.25;96.88;95329.63;5254987;28;20623;-60
2021/11/27 07:34:12;;;;;;;11.13;10.13;;;2.60;99.90;;;3.16;96.38;95333.47;5245256;28;20208;-60
2021/11/27 07:36:45;;;;;;;11.07;10.07;;;2.60;99.90;;;3.17;97.01;95334.31;5254721;28;20223;-60
2021/11/27 07:39:18;;;;;;;11.63;10.53;;;2.60;99.90;;;3.15;97.14;95333.41;5254732;28;20196;-60
2021/11/27 07:41:52;;;;;;;10.13;9.30;;;2.60;99.90;;;3.22;97.43;95339.59;5261758;28;20192;-60
2021/11/27 07:44:25;;;;;;;11.00;10.00;;;2.60;99.90;;;3.27;97.41;95340.66;5252577;28;20291;-60
2021/11/27 07:46:59;;;;;;;12.43;11.20;;;2.70;99.90;;;3.33;97.21;95348.50;5254444;28;20667;-60
2021/11/27 07:49:32;;;;;;;11.87;10.63;;;2.80;99.90;;;3.38;97.04;95345.38;5252073;28;20346;-60
2021/11/27 07:52:06;;;;;;;10.87;9.80;;;2.80;99.90;;;3.38;97.59;95339.47;5252491;28;20219;-60
2021/11/27 07:54:39;;;;;;;12.87;11.57;;;2.80;99.90;;;3.42;96.84;95343.84;5249331;28;20196;-60
2021/11/27 07:57:12;;;;;;;11.33;10.23;;;2.80;99.90;;;3.47;96.98;95344.91;5245766;28;20197;-59
2021/11/27 07:59:45;;;;;;;11.90;10.83;;;2.70;99.90;;;3.43;96.67;95340.50;5253128;28;20223;-60
2021/11/27 08:02:19;;;;;;;11.40;10.40;;;2.70;99.90;;;3.41;96.74;95357.28;5239478;28;20224;-60
2021/11/27 08:04:53;;;;;;;10.53;9.63;;;2.80;99.90;;;3.47;97.69;95357.53;5247943;28;20191;-60
2021/11/27 08:07:26;;;;;;;9.63;8.73;;;2.80;99.90;;;3.54;97.49;95351.94;5261696;28;20206;-60
2021/11/27 08:09:59;;;;;;;8.53;7.73;;;2.90;99.90;;;3.72;97.57;95364.50;5252836;28;20239;-60
2021/11/27 08:12:32;;;;;;;8.60;7.90;;;3.10;99.90;;;3.85;96.84;95363.34;5245070;28;20417;-60
2021/11/27 08:15:07;;;;;;;7.90;7.27;;;3.20;99.90;;;3.81;96.21;95367.41;5256286;28;20290;-60
2021/11/27 08:17:42;;;;;;;8.23;7.40;;;3.10;99.90;;;3.81;96.43;95358.97;5248126;28;20206;-60
2021/11/27 08:20:15;;;;;;;9.33;8.43;;;3.20;99.90;;;3.94;94.77;95358.66;5248197;28;20658;-60
2021/11/27 08:22:49;;;;;;;8.33;7.60;;;3.10;99.90;;;3.88;95.53;95360.09;5246392;28;20221;-60
2021/11/27 08:25:22;;;;;;;8.83;8.13;;;3.20;99.90;;;3.83;95.95;95369.97;5249922;28;20197;-61
2021/11/27 08:27:55;;;;;;;8.37;7.57;;;3.20;99.90;;;3.88;96.00;95383.69;5245356;28;20193;-61
2021/11/27 08:30:28;;;;;;;8.93;8.13;;;3.20;99.90;;;3.88;95.86;95373.56;5244789;28;20221;-60
2021/11/27 08:33:02;;;;;;;9.10;8.30;;;3.20;99.90;;;3.91;95.94;95388.84;5245379;28;20733;-60
2021/11/27 08:35:36;;;;;;;10.27;9.30;;;3.20;99.90;;;3.97;95.42;95389.09;5237659;28;20210;-61
2021/11/27 08:38:09;;;;;;;9.73;8.83;;;3.20;99.90;;;3.93;95.64;95392.31;5253226;28;20201;-58
2021/11/27 08:40:43;;;;;;;10.57;9.53;;;3.20;99.90;;;3.88;95.91;95403.88;5253243;28;20664;-60
2021/11/27 08:43:17;;;;;;;11.10;10.00;;;3.20;99.90;;;3.78;96.13;95400.13;5251974;28;20215;-61
2021/11/27 08:45:50;;;;;;;10.17;9.27;;;3.10;99.90;;;3.85;96.19;95398.72;5248802;28;20255;-60
2021/11/27 08:48:24;;;;;;;10.60;9.70;;;3.20;99.90;;;3.93;96.25;95406.63;5261531;28;20208;-61
2021/11/27 08:50:57;;;;;;;11.50;10.50;;;3.30;99.90;;;4.04;96.59;95406.28;5257729;28;20314;-61
2021/11/27 08:53:31;;;;;;;12.03;11.03;;;3.40;99.90;;;4.26;96.69;95407.16;5252990;28;20238;-61
2021/11/27 08:56:07;;;;;;;13.60;12.30;;;3.60;99.90;;;4.50;96.89;95413.22;5252977;28;20202;-60
2021/11/27 08:58:42;;;;;;;13.73;12.30;;;3.80;99.90;;;4.77;96.20;95410.03;5250835;28;20204;-62
2021/11/27 09:01:16;;;;;;;11.80;10.63;;;4.10;99.90;;;5.05;95.60;95401.84;5250813;28;20278;-60
2021/11/27 09:03:51;;;;;;;10.73;9.90;;;4.40;99.90;;;5.27;95.33;95401.00;5253451;28;20702;-58
2021/11/27 09:06:24;;;;;;;12.10;11.10;;;4.70;99.90;;;5.58;94.48;95402.97;5264974;28;20199;-61
2021/11/27 09:08:57;;;;;;;10.57;9.67;;;5.10;99.90;;;5.81;91.87;95396.19;5261858;28;20287;-61
2021/11/27 09:11:31;;;;;;;10.30;9.40;;;5.40;99.90;;;6.14;92.08;95405.78;5263076;28;20220;-58
2021/11/27 09:14:07;;;;;;;6.90;6.40;;;5.70;99.90;;;6.35;86.17;95399.72;5255446;28;20216;-60
2021/11/27 09:16:40;;;;;;;6.53;5.93;;;6.00;99.90;;;6.61;83.95;95396.38;5251956;28;20287;-62
2021/11/27 09:19:15;;;;;;;6.63;6.03;;;6.20;99.90;;;6.85;83.21;95397.94;5251854;28;20197;-61
2021/11/27 09:21:49;;;;;;;6.17;5.67;;;6.40;99.90;;;7.00;78.95;95401.81;5252735;28;20200;-59
2021/11/27 09:24:23;;;;;;;5.83;5.37;;;6.60;99.90;;;7.01;74.44;95402.69;5247788;28;20193;-58
2021/11/27 09:26:56;;;;;;;6.57;5.97;;;6.60;99.90;;;7.15;76.86;95396.34;5251932;28;20192;-60
2021/11/27 09:29:29;;;;;;;6.30;5.80;;;6.80;99.90;;;7.35;76.37;95396.91;5256784;28;20559;-61
2021/11/27 09:32:02;;;;;;;5.37;4.97;;;6.90;99.90;;;7.43;75.53;95399.69;5242494;28;20597;-60
2021/11/27 09:34:37;;;;;;;6.83;6.27;;;7.00;99.90;;;7.30;76.51;95402.72;5253591;28;20207;-61
2021/11/27 09:37:12;;;;;;;6.63;6.13;;;6.80;99.90;;;7.35;76.65;95403.69;5258319;28;20205;-59
2021/11/27 09:39:47;;;;;;;5.77;5.37;;;6.80;99.90;;;7.48;74.79;95413.41;5254684;28;20198;-61
2021/11/27 09:42:20;;;;;;;4.70;4.40;;;6.70;99.90;;;7.46;75.24;95404.84;5248368;28;20216;-61
2021/11/27 09:44:55;;;;;;;5.10;4.70;;;6.70;99.90;;;7.43;75.54;95415.78;5252226;28;20216;-61
2021/11/27 09:47:29;;;;;;;5.23;4.83;;;6.70;99.90;;;7.45;75.43;95408.22;5260001;28;20481;-61
2021/11/27 09:50:08;;;;;;;5.30;4.90;;;6.70;99.90;;;7.42;75.25;95410.69;5264495;28;20226;-61
2021/11/27 09:52:41;;;;;;;5.10;4.70;;;6.70;99.90;;;7.38;75.57;95411.41;5255551;28;20585;-61
2021/11/27 09:55:16;;;;;;;4.50;4.10;;;6.70;99.90;;;7.39;75.33;95405.53;5248686;28;20196;-60
2021/11/27 09:57:51;;;;;;;4.07;3.77;;;6.70;99.90;;;7.55;74.52;95410.19;5256410;28;20553;-61
2021/11/27 10:00:24;;;;;;;4.10;3.83;;;6.70;99.90;;;7.64;73.99;95405.41;5259761;28;20197;-61
2021/11/27 10:02:58;;;;;;;3.80;3.50;;;6.90;99.90;;;7.75;74.18;95397.19;5259559;28;20241;-61
2021/11/27 10:05:33;;;;;;;3.20;3.00;;;7.10;99.90;;;7.95;74.08;95405.38;5261883;28;20184;-61
2021/11/27 10:08:06;;;;;;;5.37;3.83;;;7.30;99.90;;;8.02;73.54;95405.59;5261377;28;20196;-60
2021/11/27 10:10:39;;;;;;;3.58;3.42;;;7.30;99.90;;;8.12;71.74;95393.97;5247358;28;20224;-61
2021/11/27 10:13:18;;;;;;;3.25;3.05;;;7.30;99.90;;;8.18;72.00;95381.41;5248442;28;20220;-61
2021/11/27 10:15:52;;;;;;;3.17;3.00;;;7.40;99.90;;;8.24;72.00;95378.16;5252054;28;20210;-61
2021/11/27 10:18:27;;;;;;;3.00;2.85;;;7.60;99.90;;;8.30;70.86;95379.19;5257801;28;20203;-58
2021/11/27 10:21:20;;;;;;;3.20;3.00;;;7.60;99.90;;;8.18;70.82;95366.13;5248731;28;20574;-61
2021/11/27 10:23:53;;;;;;;3.15;2.95;;;7.40;99.90;;;8.10;70.69;95373.59;5259466;28;20211;-61
2021/11/27 10:26:33;;;;;;;2.88;2.78;;;7.40;99.90;;;8.06;70.58;95364.13;5252042;28;20229;-61
2021/11/27 10:29:20;;;;;;;3.75;3.55;;;7.40;99.90;;;8.14;71.44;95369.44;5250632;28;20679;-61
2021/11/27 10:32:06;;;;;;;3.77;3.57;;;7.40;99.90;;;8.13;71.72;95366.03;5251721;28;20263;-61
2021/11/27 10:34:47;;;;;;;3.35;3.15;;;7.50;99.90;;;8.29;69.49;95366.41;5253170;28;20652;-60
2021/11/27 10:37:27;;;;;;;3.35;3.15;;;7.60;99.90;;;8.32;68.90;95362.25;5255743;28;20203;-60
2021/11/27 10:40:06;;;;;;;3.00;2.80;;;7.60;99.90;;;8.31;69.46;95364.78;5255715;28;20283;-61
2021/11/27 10:42:45;;;;;;;3.08;2.88;;;7.60;99.90;;;8.38;68.14;95366.63;5247027;28;20234;-61
2021/11/27 10:45:21;;;;;;;3.40;3.20;;;7.50;99.90;;;8.30;68.70;95356.28;5240893;28;20204;-60
2021/11/27 10:48:11;;;;;;;4.57;4.18;;;7.50;99.90;;;8.39;68.53;95360.78;5256338;28;20584;-61
2021/11/27 10:50:47;;;;;;;3.13;2.88;;;7.60;99.90;;;8.46;66.01;95367.72;5247303;28;20219;-61
2021/11/27 10:53:25;;;;;;;2.72;2.53;;;7.60;99.90;;;8.59;64.64;95363.81;5254265;28;20214;-61
2021/11/27 10:56:06;;;;;;;3.17;2.78;;;7.90;99.90;;;8.63;64.09;95368.13;5243349;28;20196;-60